Aviation Digital Data Service (ADDS)

Output produced by METARs form (1730 UTC 16 June 2019)
found at http://www.aviationweather.gov/metar/data/
 
SPHY 161100Z 1612/1712 00000KT 8000 SCT015 BKN040 TX16/1619Z TNM05/1711Z 
     TEMPO 1616/1622 11010KT
       
TAF SPQU 161700Z 1618/1718 25010KT CAVOK TX22/1619Z TN09/1711Z 
     BECMG 1623/1701 04005KT 
     BECMG 1714/1716 24010KT
       
SPHO 161100Z 1612/1712 12002KT 9999 FEW040 SCT080 TX22/1619Z TN08/1711Z 
     BECMG 1617/1619 FEW040 BKN080 
     TEMPO 1619/1623 RA
       
SPJR 161055Z 1612/1712 VRB03KT 9999 SCT026 OVC043 TX21/1619Z TN05/1711Z 
     FM161600 VRB02KT 9999 SCT026 BKN046
       
SPHI 161700Z 1618/1718 18015KT CAVOK TX25/1619Z TN17/1711Z 
     FM170800 17010KT 9999 SCT014 
     FM171500 18012KT CAVOK
       
TAF SPZO 161700Z 1618/1718 35003KT 9999 SCT040 BKN100 TX16/1619Z TN07/1711Z 
     BECMG 1618/1619 28010KT 
     TEMPO 1619/1621 8000 FEW040TCU SCT050 BKN080 
     BECMG 1623/1701 00000KT
       
SPNC 161055Z 1612/1712 VRB02KT 9999 SCT040 SCT100 TX29/1619Z TN11/1711Z 
     BECMG 1616/1618 07014KT
       
SPQT 161100Z 1612/1712 00000KT 9999 SCT010 BKN080 TX32/1619Z TN22/1711Z 
     BECMG 1614/1617 05005KT BKN020 BKN080 
     TEMPO 1619/1700 06010KT 4000 SHRA BKN008 FEW025TCU BKN070 
     TEMPO 1703/1707 7000 DZRA BKN008 BKN080 
     TEMPO 1710/1712 8000 BKN005 BKN080
       
TAF SPJL 161115Z 1612/1712 VRB05KT 9999 BKN015 TX18/1619Z TNM02/1710Z 
     FM161800 19008KT 9000 BKN010 BKN080 
     FM171100 VRB05KT 9999 SCT015
       
SPSO 161700Z 1618/1718 29006KT CAVOK TX20/1619Z TN13/1711Z 
     BECMG 1620/1622 20012KT 
     BECMG 1702/1704 10005KT 
     TEMPO 1711/1713 4000 FU
       
SPCL 161100Z 1612/1712 00000KT 9999 SCT020 BKN100 TX31/1619Z TN22/1711Z 
     TEMPO 1619/1700 02010KT 5000 SHRA BKN015 FEW025TCU BKN080 
     TEMPO 1708/1712 15010KT 5000 DZRA BKN008 BKN080
       
SPTU 161700Z 1618/1718 15005KT 9999 FEW012 BKN030 TX27/1620Z TN20/1711Z 
     TEMPO 1619/1621 6000 -SHRA FEW015TCU BKN020 
     BECMG 1622/1623 FEW050
       
SPTN 161700Z 1618/1718 23006KT 9999 SCT015 BKN030 TX17/1619Z TN14/1711Z 
     FM170000 VRB05KT 8000 SCT012 BKN025
       
SPYL 161700Z 1618/1718 22017KT 9999 BKN040 TX30/1619Z TN21/1711Z 
     BECMG 1711/1713 14017KT
       
SPST 161055Z 1612/1712 00000KT 9999 SCT015 BKN080 TX33/1619Z TN22/1711Z 
     TEMPO 1612/1613 3000 BR BKN012 
     TEMPO 1617/1619 08010KT SCT015TCU BKN060
       
SPRU 161700Z 1618/1718 17010KT 8000 BKN014 TX22/1619Z TN16/1711Z 
     BECMG 1620/1622 SCT014 
     FM170100 14005KT 6000 SCT014 BKN150 
     BECMG 1706/1708 OVC014 
     TEMPO 1710/1713 4000 BR
       
TAF SPME 161700Z 1618/1718 34010KT 8000 BKN012 TX28/1619Z TN21/1711Z 
     BECMG 1621/1623 OVC010 
     BECMG 1623/1701 27003KT
       
SPMS 161100Z 1612/1712 00000KT 9999 SCT020 BKN100 TX30/1619Z TN22/1711Z 
     TEMPO 1612/1615 8000 DZ BKN010 BKN080 
     TEMPO 1619/1700 03010KT 4000 SHRA BKN010 FEW025TCU OVC070 
     TEMPO 1709/1712 8000 DZ BKN005 BKN100